createdAt,value
2022-08-25T00:01:14.666Z,101147.31
2022-08-25T00:03:44.052Z,101147.31
2022-08-25T00:06:14.693Z,101139.84
2022-08-25T00:08:44.884Z,101150.03
2022-08-25T00:11:23.231Z,101150.00
2022-08-25T00:13:54.416Z,101141.22
2022-08-25T00:16:24.310Z,101144.47
2022-08-25T00:19:00.588Z,101145.88
2022-08-25T00:21:31.802Z,101141.75
2022-08-25T00:24:05.360Z,101141.75
2022-08-25T00:26:35.284Z,101145.84
2022-08-25T00:29:03.973Z,101151.59
2022-08-25T00:31:38.157Z,101149.94
2022-08-25T00:34:11.799Z,101145.16
2022-08-25T00:36:41.794Z,101164.25
2022-08-25T00:39:11.377Z,101161.97
2022-08-25T00:41:42.782Z,101166.63
2022-08-25T00:44:13.506Z,101170.22
2022-08-25T00:46:57.010Z,101161.91
2022-08-25T00:49:43.580Z,101156.19
2022-08-25T00:52:18.726Z,101163.97
2022-08-25T00:54:55.270Z,101157.00
2022-08-25T00:57:37.406Z,101173.63
2022-08-25T01:00:15.794Z,101165.81
2022-08-25T01:02:45.265Z,101166.34
2022-08-25T01:05:13.546Z,101165.75
2022-08-25T01:07:44.627Z,101162.44
2022-08-25T01:10:14.438Z,101166.59
2022-08-25T01:12:42.978Z,101164.34
2022-08-25T01:15:15.362Z,101169.81
2022-08-25T01:17:54.560Z,101163.53
2022-08-25T01:20:29.715Z,101161.00
2022-08-25T01:22:59.662Z,101162.66
2022-08-25T01:26:18.708Z,101157.41
2022-08-25T01:29:10.014Z,101161.34
2022-08-25T01:31:41.946Z,101161.56
2022-08-25T01:34:12.537Z,101167.88
2022-08-25T01:36:44.285Z,101162.59
2022-08-25T01:39:15.013Z,101173.84
2022-08-25T01:42:06.702Z,101161.44
2022-08-25T01:44:37.931Z,101160.09
2022-08-25T01:47:07.859Z,101157.34
2022-08-25T01:49:37.230Z,101158.97
2022-08-25T01:52:28.648Z,101164.56
2022-08-25T01:54:57.076Z,101168.41
2022-08-25T01:57:26.259Z,101162.63
2022-08-25T01:59:54.146Z,101168.28
2022-08-25T02:02:24.315Z,101171.03
2022-08-25T02:04:55.114Z,101168.28
2022-08-25T02:07:23.054Z,101163.38
2022-08-25T02:09:52.015Z,101167.22
2022-08-25T02:12:20.456Z,101172.16
2022-08-25T02:14:49.346Z,101172.16
2022-08-25T02:17:18.004Z,101174.34
2022-08-25T02:19:47.160Z,101182.34
2022-08-25T02:22:14.906Z,101186.47
2022-08-25T02:24:43.118Z,101179.28
2022-08-25T02:27:11.215Z,101185.03
2022-08-25T02:29:41.073Z,101184.22
2022-08-25T02:32:10.340Z,101183.06
2022-08-25T02:34:42.327Z,101177.03
2022-08-25T02:37:11.086Z,101184.78
2022-08-25T02:39:43.246Z,101183.06
2022-08-25T02:42:10.972Z,101185.25
2022-08-25T02:44:40.244Z,101184.72
2022-08-25T02:47:08.291Z,101180.88
2022-08-25T02:49:37.074Z,101185.25
2022-08-25T02:52:05.491Z,101183.56
2022-08-25T02:54:35.525Z,101183.31
2022-08-25T02:57:05.051Z,101182.50
2022-08-25T02:59:33.351Z,101180.88
2022-08-25T03:02:02.044Z,101183.63
2022-08-25T03:04:31.085Z,101183.56
2022-08-25T03:07:00.341Z,101178.72
2022-08-25T03:09:28.001Z,101187.41
2022-08-25T03:11:55.983Z,101190.00
2022-08-25T03:14:25.103Z,101191.69
2022-08-25T03:16:53.097Z,101191.13
2022-08-25T03:19:25.161Z,101198.84
2022-08-25T03:21:56.190Z,101200.63
2022-08-25T03:24:26.071Z,101199.66
2022-08-25T03:26:56.028Z,101206.13
2022-08-25T03:29:28.329Z,101220.19
2022-08-25T03:31:59.197Z,101216.06
2022-08-25T03:34:30.325Z,101219.22
2022-08-25T03:36:58.943Z,101217.38
2022-08-25T03:39:27.857Z,101221.78
2022-08-25T03:41:56.030Z,101219.38
2022-08-25T03:44:24.894Z,101226.28
2022-08-25T03:46:53.260Z,101215.97
2022-08-25T03:49:24.041Z,101219.81
2022-08-25T03:51:55.028Z,101220.41
2022-08-25T03:54:26.271Z,101229.78
2022-08-25T03:56:55.419Z,101220.19
2022-08-25T03:59:23.028Z,101229.22
2022-08-25T04:01:55.075Z,101227.03
2022-08-25T04:04:24.795Z,101226.59
2022-08-25T04:06:53.275Z,101220.00
2022-08-25T04:09:24.051Z,101225.44
2022-08-25T04:11:53.635Z,101224.34
2022-08-25T04:14:24.151Z,101217.78
2022-08-25T04:16:53.411Z,101220.00
2022-08-25T04:19:22.250Z,101222.13
2022-08-25T04:21:50.221Z,101220.53
2022-08-25T04:24:19.835Z,101218.91
2022-08-25T04:26:51.722Z,101214.50
2022-08-25T04:29:24.257Z,101220.28
2022-08-25T04:31:53.677Z,101207.38
2022-08-25T04:34:29.392Z,101201.22
2022-08-25T04:37:01.789Z,101198.38
2022-08-25T04:39:31.358Z,101198.13
2022-08-25T04:42:01.223Z,101214.13
2022-08-25T04:44:32.108Z,101205.41
2022-08-25T04:47:01.789Z,101203.94
2022-08-25T04:49:29.973Z,101198.16
2022-08-25T04:51:59.456Z,101204.84
2022-08-25T04:54:32.532Z,101192.44
2022-08-25T04:57:06.985Z,101199.34
2022-08-25T04:59:36.344Z,101191.22
2022-08-25T05:02:06.828Z,101191.66
2022-08-25T05:04:37.628Z,101197.28
2022-08-25T05:07:06.453Z,101197.56
2022-08-25T05:09:35.187Z,101202.56
2022-08-25T05:12:08.012Z,101186.88
2022-08-25T05:14:41.492Z,101191.81
2022-08-25T05:17:10.029Z,101191.88
2022-08-25T05:19:44.359Z,101182.56
2022-08-25T05:22:14.789Z,101199.09
2022-08-25T05:24:43.786Z,101187.31
2022-08-25T05:27:11.977Z,101188.41
2022-08-25T05:29:43.248Z,101180.97
2022-08-25T05:32:12.069Z,101187.59
2022-08-25T05:34:41.694Z,101186.28
2022-08-25T05:37:12.155Z,101176.16
2022-08-25T05:39:41.137Z,101182.19
2022-08-25T05:42:09.028Z,101174.78
2022-08-25T05:44:38.416Z,101177.28
2022-08-25T05:47:07.672Z,101181.69
2022-08-25T05:49:36.760Z,101173.44
2022-08-25T05:52:04.976Z,101173.47
2022-08-25T05:54:33.001Z,101165.22
2022-08-25T05:57:02.661Z,101164.66
2022-08-25T05:59:31.140Z,101156.94
2022-08-25T06:02:18.258Z,101151.44
2022-08-25T06:04:46.214Z,101161.94
2022-08-25T06:07:15.129Z,101158.09
2022-08-25T06:09:46.228Z,101166.91
2022-08-25T06:12:16.106Z,101161.41
2022-08-25T06:14:44.224Z,101158.09
2022-08-25T06:17:13.331Z,101161.13
2022-08-25T06:19:42.068Z,101160.84
2022-08-25T06:22:11.232Z,101164.16
2022-08-25T06:24:42.655Z,101167.97
2022-08-25T06:27:11.002Z,101151.44
2022-08-25T06:29:40.650Z,101158.59
2022-08-25T06:32:10.188Z,101160.53
2022-08-25T06:34:40.322Z,101153.28
2022-08-25T06:37:09.042Z,101162.66
2022-08-25T06:39:38.623Z,101151.25
2022-08-25T06:42:07.698Z,101149.88
2022-08-25T06:44:36.652Z,101153.94
2022-08-25T06:47:06.682Z,101149.19
2022-08-25T06:49:36.232Z,101144.16
2022-08-25T06:52:04.461Z,101153.16
2022-08-25T06:54:36.675Z,101144.81
2022-08-25T06:57:07.041Z,101139.84
2022-08-25T06:59:38.009Z,101133.34
2022-08-25T07:02:10.124Z,101129.91
2022-08-25T07:04:39.099Z,101122.03
2022-08-25T07:07:08.017Z,101113.41
2022-08-25T07:09:39.152Z,101114.31
2022-08-25T07:12:08.352Z,101113.41
2022-08-25T07:14:37.471Z,101117.41
2022-08-25T07:17:12.035Z,101117.50
2022-08-25T07:19:42.183Z,101105.50
2022-08-25T07:22:11.571Z,101111.47
2022-08-25T07:24:40.137Z,101110.03
2022-08-25T07:27:09.269Z,101095.34
2022-08-25T07:29:42.642Z,101096.13
2022-08-25T07:32:12.239Z,101094.84
2022-08-25T07:34:58.540Z,101087.59
2022-08-25T07:37:47.680Z,101087.09
2022-08-25T07:40:25.692Z,101086.31
2022-08-25T07:42:58.479Z,101079.16
2022-08-25T07:45:32.438Z,101071.50
2022-08-25T07:48:07.051Z,101078.19
2022-08-25T07:50:38.959Z,101064.03
2022-08-25T07:53:09.824Z,101070.72
2022-08-25T07:55:41.645Z,101060.63
2022-08-25T07:58:12.261Z,101059.69
2022-08-25T08:00:42.373Z,101059.09
2022-08-25T08:03:19.913Z,101065.25
2022-08-25T08:06:02.101Z,101050.44
2022-08-25T08:08:31.095Z,101048.25
2022-08-25T08:11:04.750Z,101039.75
2022-08-25T08:13:40.660Z,101053.09
2022-08-25T08:16:13.395Z,101048.31
2022-08-25T08:18:46.529Z,101058.28
2022-08-25T08:21:23.602Z,101051.38
2022-08-25T08:23:58.544Z,101043.63
2022-08-25T08:26:48.232Z,101046.09
2022-08-25T08:29:20.375Z,101053.94
2022-08-25T08:31:52.201Z,101049.75
2022-08-25T08:34:25.317Z,101044.72
2022-08-25T08:36:56.745Z,101037.63
2022-08-25T08:39:27.140Z,101038.66
2022-08-25T08:42:22.600Z,101028.50
2022-08-25T08:45:24.705Z,101038.16
2022-08-25T08:48:03.712Z,101018.59
2022-08-25T08:50:58.262Z,101019.66
2022-08-25T08:53:51.766Z,101016.63
2022-08-25T08:56:30.831Z,101015.97
2022-08-25T08:59:06.365Z,101010.81
2022-08-25T09:01:47.155Z,101006.00
2022-08-25T09:04:35.580Z,101000.13
2022-08-25T09:07:14.792Z,101001.75
2022-08-25T09:09:46.313Z,101006.06
2022-08-25T09:13:12.257Z,101000.31
2022-08-25T09:16:50.211Z,100981.97
2022-08-25T09:19:55.178Z,100998.88
2022-08-25T09:22:41.979Z,100987.38
2022-08-25T09:25:53.409Z,100975.22
2022-08-25T09:28:49.151Z,100970.09
2022-08-25T09:31:29.539Z,100976.94
2022-08-25T09:34:02.386Z,100965.88
2022-08-25T09:36:37.437Z,100973.75
2022-08-25T09:39:08.104Z,100972.19
2022-08-25T09:41:52.380Z,100954.19
2022-08-25T09:44:27.827Z,100968.75
2022-08-25T09:47:28.017Z,100957.66
2022-08-25T09:50:04.371Z,100953.84
2022-08-25T09:52:41.295Z,100962.81
2022-08-25T09:55:34.551Z,100951.84
2022-08-25T09:58:16.174Z,100952.50
2022-08-25T10:01:03.169Z,100954.22
2022-08-25T10:03:36.504Z,100954.22
2022-08-25T10:06:18.785Z,100951.78
2022-08-25T10:08:50.007Z,100955.09
2022-08-25T10:11:35.494Z,100938.81
2022-08-25T10:14:44.369Z,100950.38
2022-08-25T10:17:29.510Z,100956.34
2022-08-25T10:20:11.289Z,100960.91
2022-08-25T10:22:42.576Z,100950.91
2022-08-25T10:25:17.088Z,100953.97
2022-08-25T10:27:51.110Z,100951.38
2022-08-25T10:30:37.027Z,100938.84
2022-08-25T10:33:44.944Z,100935.38
2022-08-25T10:36:21.344Z,100934.28
2022-08-25T10:39:01.622Z,100933.88
2022-08-25T10:41:49.492Z,100921.13
2022-08-25T10:45:21.765Z,100913.50
2022-08-25T10:48:13.794Z,100918.84
2022-08-25T10:51:19.579Z,100920.59
2022-08-25T10:54:15.648Z,100920.81
2022-08-25T10:57:01.819Z,100915.06
2022-08-25T10:59:56.541Z,100916.72
2022-08-25T11:02:45.164Z,100917.91
2022-08-25T11:06:07.806Z,100918.75
2022-08-25T11:08:45.126Z,100913.44
2022-08-25T11:11:35.104Z,100896.53
2022-08-25T11:14:19.513Z,100899.41
2022-08-25T11:17:26.705Z,100891.72
2022-08-25T11:20:06.010Z,100900.50
2022-08-25T11:22:43.396Z,100898.44
2022-08-25T11:25:22.145Z,100895.13
2022-08-25T11:28:43.677Z,100905.44
2022-08-25T11:31:14.578Z,100900.50
2022-08-25T11:33:48.044Z,100909.00
2022-08-25T11:36:36.864Z,100901.88
2022-08-25T11:39:38.041Z,100905.34
2022-08-25T11:42:54.410Z,100892.34
2022-08-25T11:45:46.217Z,100887.19
2022-08-25T11:48:23.472Z,100882.81
2022-08-25T11:51:07.949Z,100878.13
2022-08-25T11:53:44.097Z,100881.94
2022-08-25T11:56:33.194Z,100878.22
2022-08-25T11:59:05.748Z,100885.53
2022-08-25T12:01:40.447Z,100881.75
2022-08-25T12:04:45.183Z,100875.75
2022-08-25T12:07:21.949Z,100860.81
2022-08-25T12:09:57.002Z,100866.91
2022-08-25T12:12:42.092Z,100868.69
2022-08-25T12:15:26.214Z,100867.78
2022-08-25T12:18:18.839Z,100868.13
2022-08-25T12:20:58.757Z,100857.53
2022-08-25T12:24:05.839Z,100861.81
2022-08-25T12:26:52.000Z,100866.41
2022-08-25T12:29:53.537Z,100856.16
2022-08-25T12:33:15.622Z,100863.38
2022-08-25T12:36:03.104Z,100855.19
2022-08-25T12:38:43.672Z,100867.72
2022-08-25T12:41:22.445Z,100858.59
2022-08-25T12:44:09.291Z,100857.13
2022-08-25T12:46:39.860Z,100861.00
2022-08-25T12:49:41.583Z,100865.63
2022-08-25T12:52:19.300Z,100860.59
2022-08-25T12:54:59.840Z,100862.63
2022-08-25T12:57:40.856Z,100864.53
2022-08-25T13:01:01.632Z,100871.16
2022-08-25T13:04:45.370Z,100869.63
2022-08-25T13:07:36.459Z,100860.31
2022-08-25T13:10:19.317Z,100859.75
2022-08-25T13:13:09.339Z,100853.44
2022-08-25T13:15:41.201Z,100853.22
2022-08-25T13:18:20.659Z,100849.03
2022-08-25T13:20:54.916Z,100855.94
2022-08-25T13:23:29.205Z,100845.06
2022-08-25T13:25:58.852Z,100850.75
2022-08-25T13:28:36.542Z,100849.22
2022-08-25T13:31:22.939Z,100858.91
2022-08-25T13:34:03.020Z,100855.88
2022-08-25T13:37:03.958Z,100848.94
2022-08-25T13:39:54.954Z,100855.47
2022-08-25T13:42:29.112Z,100840.91
2022-08-25T13:44:57.241Z,100845.06
2022-08-25T13:47:45.070Z,100836.97
2022-08-25T13:50:38.013Z,100833.41
2022-08-25T13:53:14.172Z,100818.78
2022-08-25T13:55:51.451Z,100830.00
2022-08-25T13:58:39.241Z,100828.34
2022-08-25T14:01:47.665Z,100828.28
2022-08-25T14:07:33.788Z,100835.47
2022-08-25T14:10:36.235Z,100823.78
2022-08-25T14:13:31.269Z,100827.56
2022-08-25T14:16:25.927Z,100828.22
2022-08-25T14:18:58.850Z,100827.97
2022-08-25T14:21:32.647Z,100832.59
2022-08-25T14:24:03.479Z,100831.66
2022-08-25T14:26:32.867Z,100829.69
2022-08-25T14:29:02.209Z,100822.63
2022-08-25T14:31:43.450Z,100822.31
2022-08-25T14:34:28.646Z,100820.00
2022-08-25T14:37:00.387Z,100823.63
2022-08-25T14:39:30.624Z,100823.97
2022-08-25T14:42:00.412Z,100823.50
2022-08-25T14:44:31.272Z,100824.34
2022-08-25T14:47:02.694Z,100814.03
2022-08-25T14:49:41.085Z,100820.63
2022-08-25T14:52:30.720Z,100821.66
2022-08-25T14:54:59.871Z,100814.09
2022-08-25T14:57:28.280Z,100815.91
2022-08-25T14:59:58.837Z,100806.56
2022-08-25T15:02:29.521Z,100810.19
2022-08-25T15:05:06.699Z,100804.47
2022-08-25T15:07:54.742Z,100794.78
2022-08-25T15:10:26.961Z,100800.78
2022-08-25T15:12:55.237Z,100803.09
2022-08-25T15:15:27.238Z,100791.13
2022-08-25T15:18:01.270Z,100790.16
2022-08-25T15:20:35.004Z,100788.69
2022-08-25T15:23:09.122Z,100789.16
2022-08-25T15:25:40.660Z,100791.75
2022-08-25T15:28:10.113Z,100791.47
2022-08-25T15:30:44.937Z,100793.13
2022-08-25T15:36:15.373Z,100788.50
2022-08-25T15:38:44.828Z,100793.72
2022-08-25T15:41:15.772Z,100795.50
2022-08-25T15:43:44.163Z,100793.16
2022-08-25T15:46:18.503Z,100791.78
2022-08-25T15:48:47.791Z,100797.97
2022-08-25T15:52:01.390Z,100800.56
2022-08-25T15:54:32.273Z,100806.72
2022-08-25T15:57:01.246Z,100803.13
2022-08-25T15:59:33.097Z,100799.81
2022-08-25T16:02:02.400Z,100804.03
2022-08-25T16:04:33.166Z,100806.94
2022-08-25T16:07:02.612Z,100807.28
2022-08-25T16:09:32.325Z,100809.34
2022-08-25T16:12:06.819Z,100803.91
2022-08-25T16:14:38.056Z,100810.19
2022-08-25T16:19:39.562Z,100811.59
2022-08-25T16:22:11.192Z,100809.13
2022-08-25T16:24:40.867Z,100810.16
2022-08-25T16:27:14.859Z,100806.19
2022-08-25T16:29:44.586Z,100809.41
2022-08-25T16:32:16.090Z,100813.44
2022-08-25T16:34:44.891Z,100810.31
2022-08-25T16:37:14.665Z,100810.78
2022-08-25T16:39:46.293Z,100813.94
2022-08-25T16:42:15.330Z,100814.47
2022-08-25T16:44:47.142Z,100809.97
2022-08-25T16:47:17.699Z,100816.50
2022-08-25T16:49:51.967Z,100809.47
2022-08-25T16:52:44.437Z,100812.13
2022-08-25T16:55:16.598Z,100811.13
2022-08-25T16:57:54.584Z,100820.34
2022-08-25T17:00:28.232Z,100813.47
2022-08-25T17:03:05.093Z,100816.94
2022-08-25T17:05:43.925Z,100814.66
2022-08-25T17:08:31.036Z,100816.94
2022-08-25T17:11:12.204Z,100812.81
2022-08-25T17:13:44.718Z,100819.78
2022-08-25T17:16:14.958Z,100823.47
2022-08-25T17:18:43.561Z,100813.00
2022-08-25T17:21:24.331Z,100815.66
2022-08-25T17:23:56.035Z,100812.28
2022-08-25T17:26:27.925Z,100812.59
2022-08-25T17:29:02.756Z,100813.81
2022-08-25T17:31:34.846Z,100806.00
2022-08-25T17:34:04.235Z,100801.03
2022-08-25T17:36:34.881Z,100810.25
2022-08-25T17:39:04.256Z,100811.91
2022-08-25T17:41:34.124Z,100799.78
2022-08-25T17:44:06.701Z,100805.41
2022-08-25T17:46:37.042Z,100795.75
2022-08-25T17:49:09.048Z,100799.88
2022-08-25T17:51:40.175Z,100798.94
2022-08-25T17:54:11.152Z,100801.16
2022-08-25T17:56:40.680Z,100794.28
2022-08-25T17:59:10.720Z,100798.09
2022-08-25T18:01:42.040Z,100794.81
2022-08-25T18:07:09.455Z,100790.25
2022-08-25T18:09:47.188Z,100788.63
2022-08-25T18:12:19.041Z,100780.94
2022-08-25T18:14:48.696Z,100779.69
2022-08-25T18:17:23.040Z,100784.72
2022-08-25T18:19:52.690Z,100778.97
2022-08-25T18:22:23.333Z,100777.09
2022-08-25T18:24:53.290Z,100777.09
2022-08-25T18:27:25.464Z,100767.22
2022-08-25T18:30:07.365Z,100766.81
2022-08-25T18:32:49.153Z,100762.22
2022-08-25T18:35:26.971Z,100771.22
2022-08-25T18:41:24.597Z,100771.75
2022-08-25T18:43:57.239Z,100766.84
2022-08-25T18:46:29.575Z,100765.50
2022-08-25T18:48:58.704Z,100758.03
2022-08-25T18:51:28.188Z,100758.13
2022-08-25T18:54:02.351Z,100757.31
2022-08-25T18:56:31.277Z,100757.06
2022-08-25T18:59:01.555Z,100753.78
2022-08-25T19:01:30.559Z,100756.63
2022-08-25T19:04:00.834Z,100762.25
2022-08-25T19:06:31.482Z,100752.31
2022-08-25T19:09:01.688Z,100763.59
2022-08-25T19:11:35.330Z,100753.72
2022-08-25T19:14:21.817Z,100751.25
2022-08-25T19:16:53.139Z,100745.72
2022-08-25T19:19:28.550Z,100743.03
2022-08-25T19:21:59.850Z,100743.41
2022-08-25T19:24:31.276Z,100748.13
2022-08-25T19:27:03.029Z,100737.06
2022-08-25T19:29:32.596Z,100744.81
2022-08-25T19:32:02.224Z,100737.88
2022-08-25T19:34:38.445Z,100740.34
2022-08-25T19:37:08.622Z,100730.53
2022-08-25T19:39:39.548Z,100733.31
2022-08-25T19:42:31.665Z,100736.97
2022-08-25T19:45:00.033Z,100723.78
2022-08-25T19:47:29.897Z,100728.72
2022-08-25T19:50:00.699Z,100732.31
2022-08-25T19:52:29.692Z,100725.19
2022-08-25T19:54:59.141Z,100724.00
2022-08-25T19:57:28.650Z,100731.78
2022-08-25T20:00:21.663Z,100739.53
2022-08-25T20:02:58.304Z,100736.25
2022-08-25T20:05:29.199Z,100738.56
2022-08-25T20:07:59.020Z,100731.97
2022-08-25T20:10:32.751Z,100743.56
2022-08-25T20:13:08.643Z,100744.91
2022-08-25T20:15:39.100Z,100749.69
2022-08-25T20:18:08.772Z,100753.56
2022-08-25T20:20:37.966Z,100744.53
2022-08-25T20:23:29.740Z,100754.78
2022-08-25T20:25:58.179Z,100757.28
2022-08-25T20:28:26.096Z,100765.34
2022-08-25T20:30:55.722Z,100760.94
2022-08-25T20:33:24.440Z,100760.34
2022-08-25T20:35:53.374Z,100771.94
2022-08-25T20:38:22.624Z,100754.28
2022-08-25T20:40:51.132Z,100767.94
2022-08-25T20:43:20.752Z,100764.88
2022-08-25T20:45:49.494Z,100766.88
2022-08-25T20:48:20.961Z,100763.00
2022-08-25T20:50:57.234Z,100772.34
2022-08-25T20:53:27.695Z,100767.94
2022-08-25T20:55:56.137Z,100764.41
2022-08-25T20:58:24.078Z,100766.63
2022-08-25T21:00:56.107Z,100769.94
2022-08-25T21:03:25.544Z,100757.31
2022-08-25T21:05:56.250Z,100773.34
2022-08-25T21:08:25.483Z,100763.13
2022-08-25T21:10:57.077Z,100763.94
2022-08-25T21:13:26.584Z,100775.59
2022-08-25T21:15:55.895Z,100773.41
2022-08-25T21:18:26.674Z,100778.94
2022-08-25T21:21:12.473Z,100774.03
2022-08-25T21:23:44.928Z,100768.28
2022-08-25T21:26:17.745Z,100765.25
2022-08-25T21:28:47.843Z,100769.66
2022-08-25T21:31:19.079Z,100777.44
2022-08-25T21:33:56.718Z,100782.47
2022-08-25T21:36:28.504Z,100772.59
2022-08-25T21:39:02.011Z,100778.63
2022-08-25T21:41:35.166Z,100778.66
2022-08-25T21:44:07.535Z,100776.19
2022-08-25T21:46:37.032Z,100782.09
2022-08-25T21:49:08.002Z,100779.88
2022-08-25T21:51:44.049Z,100774.63
2022-08-25T21:54:17.346Z,100773.81
2022-08-25T21:56:58.950Z,100767.16
2022-08-25T21:59:31.086Z,100761.91
2022-08-25T22:02:02.064Z,100765.50
2022-08-25T22:04:32.555Z,100774.94
2022-08-25T22:07:02.894Z,100769.69
2022-08-25T22:09:31.446Z,100771.69
2022-08-25T22:12:00.235Z,100767.88
2022-08-25T22:14:28.118Z,100758.47
2022-08-25T22:16:56.442Z,100756.25
2022-08-25T22:19:25.597Z,100758.50
2022-08-25T22:21:55.832Z,100745.50
2022-08-25T22:24:28.194Z,100748.00
2022-08-25T22:26:57.013Z,100747.75
2022-08-25T22:29:27.451Z,100748.53
2022-08-25T22:32:02.499Z,100746.72
2022-08-25T22:34:44.197Z,100744.72
2022-08-25T22:37:13.052Z,100743.88
2022-08-25T22:39:46.857Z,100750.22
2022-08-25T22:42:16.012Z,100750.22
2022-08-25T22:44:44.808Z,100750.56
2022-08-25T22:47:14.153Z,100752.22
2022-08-25T22:49:47.546Z,100751.72
2022-08-25T22:52:16.702Z,100756.38
2022-08-25T22:54:45.286Z,100749.75
2022-08-25T22:57:14.121Z,100762.38
2022-08-25T22:59:44.580Z,100764.31
2022-08-25T23:02:13.352Z,100761.88
2022-08-25T23:04:43.498Z,100753.38
2022-08-25T23:07:12.706Z,100753.66
2022-08-25T23:09:44.619Z,100747.59
2022-08-25T23:12:14.449Z,100743.56
2022-08-25T23:14:44.351Z,100744.34
2022-08-25T23:17:13.404Z,100742.16
2022-08-25T23:19:42.550Z,100739.13
2022-08-25T23:22:11.674Z,100735.81
2022-08-25T23:24:46.310Z,100737.72
2022-08-25T23:27:19.324Z,100736.91
2022-08-25T23:29:50.635Z,100727.34
2022-08-25T23:32:19.232Z,100732.28
2022-08-25T23:34:47.377Z,100728.94
2022-08-25T23:37:18.770Z,100729.47
2022-08-25T23:39:50.064Z,100721.84
2022-08-25T23:42:22.040Z,100728.41
2022-08-25T23:44:50.518Z,100719.03
2022-08-25T23:47:19.725Z,100725.09
2022-08-25T23:49:48.770Z,100721.22
2022-08-25T23:52:18.479Z,100719.31
2022-08-25T23:54:49.175Z,100730.06
2022-08-25T23:57:18.902Z,100724.88
2022-08-25T23:59:48.793Z,100733.44
